Terminal Aerodrome Forecast
Issued by NWS

Home | Current Version | Previous Version | Text Only | Print | Product List | Glossary On
Versions: 1 2 3 4 5 6 7 8 9 10 11 12 13 14 15 16
000
FTUS41 KLWX 301100
TAFMTN
TAF
KMTN 301133Z 3012/3112 00000KT P6SM FEW200
     FM301500 33008KT P6SM SCT050
     FM302300 33004KT P6SM FEW040
     FM310300 00000KT P6SM FEW150=

USA.gov is the U.S. government's official web portal to all federal, state and local government web resources and services.